sensor_id;sensor_type;location;lat;lon;timestamp;noise_LAeq;noise_LA_min;noise_LA_max;noise_LA01;noise_LA95
66335;Laerm;53138;51.496;6.410;2023-07-24T00:00:05;32.07;30.36;33.61;;
66335;Laerm;53138;51.496;6.410;2023-07-24T00:00:15;33.13;30.85;35.51;;
66335;Laerm;53138;51.496;6.410;2023-07-24T00:00:25;33.94;31.98;36.29;;
66335;Laerm;53138;51.496;6.410;2023-07-24T00:00:35;35.01;32.60;36.87;;
66335;Laerm;53138;51.496;6.410;2023-07-24T00:00:46;34.16;32.17;37.95;;
66335;Laerm;53138;51.496;6.410;2023-07-24T00:00:56;32.49;30.18;34.04;;
66335;Laerm;53138;51.496;6.410;2023-07-24T00:01:06;32.76;30.40;35.07;;
66335;Laerm;53138;51.496;6.410;2023-07-24T00:01:16;32.16;30.41;34.38;;
66335;Laerm;53138;51.496;6.410;2023-07-24T00:01:28;32.22;29.95;35.94;;
66335;Laerm;53138;51.496;6.410;2023-07-24T00:01:38;31.92;30.11;33.57;;
66335;Laerm;53138;51.496;6.410;2023-07-24T00:01:48;31.69;29.18;33.50;;
66335;Laerm;53138;51.496;6.410;2023-07-24T00:01:58;32.37;29.86;34.40;;
66335;Laerm;53138;51.496;6.410;2023-07-24T00:02:09;31.59;29.79;33.37;;
66335;Laerm;53138;51.496;6.410;2023-07-24T00:02:19;32.06;29.98;34.98;;
66335;Laerm;53138;51.496;6.410;2023-07-24T00:02:29;31.22;29.95;32.99;;
66335;Laerm;53138;51.496;6.410;2023-07-24T00:02:39;31.49;29.93;36.77;;
66335;Laerm;53138;51.496;6.410;2023-07-24T00:02:50;32.09;30.01;34.60;;
66335;Laerm;53138;51.496;6.410;2023-07-24T00:03:00;32.30;30.38;34.26;;
66335;Laerm;53138;51.496;6.410;2023-07-24T00:03:10;34.41;30.87;39.22;;
66335;Laerm;53138;51.496;6.410;2023-07-24T00:03:21;32.23;30.57;34.18;;
66335;Laerm;53138;51.496;6.410;2023-07-24T00:03:31;35.13;31.92;39.02;;
66335;Laerm;53138;51.496;6.410;2023-07-24T00:03:41;40.22;35.00;48.13;;
66335;Laerm;53138;51.496;6.410;2023-07-24T00:03:51;40.30;34.40;48.89;;
66335;Laerm;53138;51.496;6.410;2023-07-24T00:04:04;34.14;31.21;37.11;;
66335;Laerm;53138;51.496;6.410;2023-07-24T00:04:14;32.36;30.83;33.95;;
66335;Laerm;53138;51.496;6.410;2023-07-24T00:04:25;31.88;30.23;33.60;;
66335;Laerm;53138;51.496;6.410;2023-07-24T00:04:35;32.68;31.32;35.57;;
66335;Laerm;53138;51.496;6.410;2023-07-24T00:04:45;32.51;29.64;35.31;;
66335;Laerm;53138;51.496;6.410;2023-07-24T00:04:55;32.73;30.99;34.48;;
66335;Laerm;53138;51.496;6.410;2023-07-24T00:05:06;32.32;30.57;36.79;;
66335;Laerm;53138;51.496;6.410;2023-07-24T00:05:16;32.32;30.75;33.76;;
66335;Laerm;53138;51.496;6.410;2023-07-24T00:05:26;33.80;30.99;44.23;;
66335;Laerm;53138;51.496;6.410;2023-07-24T00:05:36;35.76;31.71;40.43;;
66335;Laerm;53138;51.496;6.410;2023-07-24T00:05:47;32.31;30.13;34.39;;
66335;Laerm;53138;51.496;6.410;2023-07-24T00:05:57;33.22;31.16;35.48;;
66335;Laerm;53138;51.496;6.410;2023-07-24T00:06:08;32.26;30.51;34.24;;
66335;Laerm;53138;51.496;6.410;2023-07-24T00:06:18;32.92;30.51;35.15;;
66335;Laerm;53138;51.496;6.410;2023-07-24T00:06:29;34.13;32.39;37.66;;
66335;Laerm;53138;51.496;6.410;2023-07-24T00:06:39;33.67;31.93;36.42;;
66335;Laerm;53138;51.496;6.410;2023-07-24T00:06:49;34.12;32.01;35.93;;
66335;Laerm;53138;51.496;6.410;2023-07-24T00:07:00;32.83;30.96;35.59;;
66335;Laerm;53138;51.496;6.410;2023-07-24T00:07:10;34.15;30.83;37.18;;
66335;Laerm;53138;51.496;6.410;2023-07-24T00:07:20;35.41;32.84;38.53;;
66335;Laerm;53138;51.496;6.410;2023-07-24T00:07:30;32.84;30.93;34.71;;
66335;Laerm;53138;51.496;6.410;2023-07-24T00:07:41;31.96;30.41;33.36;;
66335;Laerm;53138;51.496;6.410;2023-07-24T00:07:51;32.44;30.50;34.48;;
66335;Laerm;53138;51.496;6.410;2023-07-24T00:08:01;33.56;30.37;39.60;;
66335;Laerm;53138;51.496;6.410;2023-07-24T00:08:12;33.79;31.02;39.27;;
66335;Laerm;53138;51.496;6.410;2023-07-24T00:08:22;32.19;30.31;33.89;;
66335;Laerm;53138;51.496;6.410;2023-07-24T00:08:32;32.81;30.34;49.13;;
66335;Laerm;53138;51.496;6.410;2023-07-24T00:08:42;32.86;30.47;35.18;;
66335;Laerm;53138;51.496;6.410;2023-07-24T00:08:52;34.71;31.64;41.21;;
66335;Laerm;53138;51.496;6.410;2023-07-24T00:09:03;31.96;30.17;34.72;;
66335;Laerm;53138;51.496;6.410;2023-07-24T00:09:13;31.83;30.43;35.05;;
66335;Laerm;53138;51.496;6.410;2023-07-24T00:09:23;32.44;31.06;34.05;;
66335;Laerm;53138;51.496;6.410;2023-07-24T00:09:34;32.85;31.14;34.28;;
66335;Laerm;53138;51.496;6.410;2023-07-24T00:09:44;35.09;31.61;39.35;;
66335;Laerm;53138;51.496;6.410;2023-07-24T00:09:54;40.73;35.30;47.49;;
66335;Laerm;53138;51.496;6.410;2023-07-24T00:10:05;39.35;33.21;46.95;;
66335;Laerm;53138;51.496;6.410;2023-07-24T00:10:15;34.94;33.01;36.58;;
66335;Laerm;53138;51.496;6.410;2023-07-24T00:10:26;34.87;32.70;37.68;;
66335;Laerm;53138;51.496;6.410;2023-07-24T00:10:36;36.65;34.27;39.42;;
66335;Laerm;53138;51.496;6.410;2023-07-24T00:10:46;36.17;32.62;38.83;;
66335;Laerm;53138;51.496;6.410;2023-07-24T00:10:57;34.23;31.78;36.69;;
66335;Laerm;53138;51.496;6.410;2023-07-24T00:11:08;34.30;31.23;37.12;;
66335;Laerm;53138;51.496;6.410;2023-07-24T00:11:18;35.58;32.28;40.25;;
66335;Laerm;53138;51.496;6.410;2023-07-24T00:11:29;35.11;32.61;38.40;;
66335;Laerm;53138;51.496;6.410;2023-07-24T00:11:39;35.68;32.62;40.14;;
66335;Laerm;53138;51.496;6.410;2023-07-24T00:11:49;39.11;34.43;43.32;;
66335;Laerm;53138;51.496;6.410;2023-07-24T00:11:59;40.97;35.27;47.57;;
66335;Laerm;53138;51.496;6.410;2023-07-24T00:12:10;36.50;32.75;42.35;;
66335;Laerm;53138;51.496;6.410;2023-07-24T00:12:20;39.26;34.05;44.36;;
66335;Laerm;53138;51.496;6.410;2023-07-24T00:12:30;41.00;35.35;47.25;;
66335;Laerm;53138;51.496;6.410;2023-07-24T00:12:40;37.01;34.17;41.61;;
66335;Laerm;53138;51.496;6.410;2023-07-24T00:12:51;41.37;35.13;48.32;;
66335;Laerm;53138;51.496;6.410;2023-07-24T00:13:01;37.31;33.90;41.34;;
66335;Laerm;53138;51.496;6.410;2023-07-24T00:13:13;33.01;31.64;36.51;;
66335;Laerm;53138;51.496;6.410;2023-07-24T00:13:23;33.87;31.56;37.15;;
66335;Laerm;53138;51.496;6.410;2023-07-24T00:13:33;37.51;32.81;44.02;;
66335;Laerm;53138;51.496;6.410;2023-07-24T00:13:44;43.90;36.38;51.81;;
66335;Laerm;53138;51.496;6.410;2023-07-24T00:13:54;34.52;31.26;37.43;;
66335;Laerm;53138;51.496;6.410;2023-07-24T00:14:05;32.26;30.67;37.60;;
66335;Laerm;53138;51.496;6.410;2023-07-24T00:14:15;32.10;30.35;33.41;;
66335;Laerm;53138;51.496;6.410;2023-07-24T00:14:25;32.02;30.36;33.61;;
66335;Laerm;53138;51.496;6.410;2023-07-24T00:14:36;33.14;30.78;36.11;;
66335;Laerm;53138;51.496;6.410;2023-07-24T00:14:46;33.59;32.18;35.21;;
66335;Laerm;53138;51.496;6.410;2023-07-24T00:14:56;34.72;32.93;37.35;;
66335;Laerm;53138;51.496;6.410;2023-07-24T00:15:06;39.51;35.66;45.64;;
66335;Laerm;53138;51.496;6.410;2023-07-24T00:15:17;38.85;35.62;43.93;;
66335;Laerm;53138;51.496;6.410;2023-07-24T00:15:27;43.98;37.49;50.34;;
66335;Laerm;53138;51.496;6.410;2023-07-24T00:15:38;35.84;32.20;40.53;;
66335;Laerm;53138;51.496;6.410;2023-07-24T00:15:48;32.35;30.71;34.26;;
66335;Laerm;53138;51.496;6.410;2023-07-24T00:15:58;32.33;30.38;35.45;;
66335;Laerm;53138;51.496;6.410;2023-07-24T00:16:09;32.24;30.31;46.54;;
66335;Laerm;53138;51.496;6.410;2023-07-24T00:16:19;33.76;30.51;36.58;;
66335;Laerm;53138;51.496;6.410;2023-07-24T00:16:29;32.10;30.28;33.56;;
66335;Laerm;53138;51.496;6.410;2023-07-24T00:16:39;32.42;30.06;34.07;;
66335;Laerm;53138;51.496;6.410;2023-07-24T00:16:50;31.36;30.03;32.89;;
66335;Laerm;53138;51.496;6.410;2023-07-24T00:17:00;31.40;29.61;33.34;;
66335;Laerm;53138;51.496;6.410;2023-07-24T00:17:10;33.46;30.21;36.55;;
66335;Laerm;53138;51.496;6.410;2023-07-24T00:17:20;31.47;29.88;33.41;;
66335;Laerm;53138;51.496;6.410;2023-07-24T00:17:31;31.53;30.05;33.61;;
66335;Laerm;53138;51.496;6.410;2023-07-24T00:17:41;31.79;29.90;34.07;;
66335;Laerm;53138;51.496;6.410;2023-07-24T00:17:51;31.67;29.74;33.23;;
66335;Laerm;53138;51.496;6.410;2023-07-24T00:18:01;34.50;31.01;38.41;;
66335;Laerm;53138;51.496;6.410;2023-07-24T00:18:12;31.99;30.35;33.61;;
66335;Laerm;53138;51.496;6.410;2023-07-24T00:18:22;31.64;30.31;33.32;;
66335;Laerm;53138;51.496;6.410;2023-07-24T00:18:32;31.86;30.34;33.98;;
66335;Laerm;53138;51.496;6.410;2023-07-24T00:18:42;33.03;29.95;39.08;;
66335;Laerm;53138;51.496;6.410;2023-07-24T00:18:53;33.02;30.04;36.61;;
66335;Laerm;53138;51.496;6.410;2023-07-24T00:19:03;32.61;30.46;34.88;;
66335;Laerm;53138;51.496;6.410;2023-07-24T00:19:14;31.66;30.50;33.41;;
66335;Laerm;53138;51.496;6.410;2023-07-24T00:19:24;31.62;30.16;33.52;;
66335;Laerm;53138;51.496;6.410;2023-07-24T00:19:34;33.11;29.97;36.16;;
66335;Laerm;53138;51.496;6.410;2023-07-24T00:19:44;31.83;30.30;35.21;;
66335;Laerm;53138;51.496;6.410;2023-07-24T00:19:55;31.48;29.86;33.05;;
66335;Laerm;53138;51.496;6.410;2023-07-24T00:20:05;33.16;30.15;35.28;;
66335;Laerm;53138;51.496;6.410;2023-07-24T00:20:16;32.95;31.17;35.00;;
66335;Laerm;53138;51.496;6.410;2023-07-24T00:20:26;35.74;30.65;43.36;;
66335;Laerm;53138;51.496;6.410;2023-07-24T00:20:37;32.69;30.96;34.68;;
66335;Laerm;53138;51.496;6.410;2023-07-24T00:20:47;32.39;30.92;33.61;;
66335;Laerm;53138;51.496;6.410;2023-07-24T00:20:57;31.87;30.29;34.47;;
66335;Laerm;53138;51.496;6.410;2023-07-24T00:21:08;31.93;30.33;35.20;;
66335;Laerm;53138;51.496;6.410;2023-07-24T00:21:18;32.92;30.89;35.20;;
66335;Laerm;53138;51.496;6.410;2023-07-24T00:21:28;36.85;32.74;41.03;;
66335;Laerm;53138;51.496;6.410;2023-07-24T00:21:38;42.71;34.88;50.01;;
66335;Laerm;53138;51.496;6.410;2023-07-24T00:21:49;33.18;30.38;35.76;;
66335;Laerm;53138;51.496;6.410;2023-07-24T00:21:59;32.31;30.43;36.03;;
66335;Laerm;53138;51.496;6.410;2023-07-24T00:22:09;32.75;30.39;36.09;;
66335;Laerm;53138;51.496;6.410;2023-07-24T00:22:19;31.42;29.68;32.77;;
66335;Laerm;53138;51.496;6.410;2023-07-24T00:22:29;31.67;30.23;33.15;;
66335;Laerm;53138;51.496;6.410;2023-07-24T00:22:40;31.60;29.94;33.75;;
66335;Laerm;53138;51.496;6.410;2023-07-24T00:22:50;31.78;29.70;34.24;;
66335;Laerm;53138;51.496;6.410;2023-07-24T00:23:01;32.37;30.43;34.85;;
66335;Laerm;53138;51.496;6.410;2023-07-24T00:23:11;31.91;29.85;33.46;;
66335;Laerm;53138;51.496;6.410;2023-07-24T00:23:21;32.51;30.74;34.86;;
66335;Laerm;53138;51.496;6.410;2023-07-24T00:23:32;38.23;32.54;45.41;;
66335;Laerm;53138;51.496;6.410;2023-07-24T00:23:42;42.99;35.09;50.14;;
66335;Laerm;53138;51.496;6.410;2023-07-24T00:23:52;33.25;31.11;36.45;;
66335;Laerm;53138;51.496;6.410;2023-07-24T00:24:02;34.95;32.65;38.14;;
66335;Laerm;53138;51.496;6.410;2023-07-24T00:24:13;39.98;33.15;46.62;;
66335;Laerm;53138;51.496;6.410;2023-07-24T00:24:23;43.95;35.26;51.64;;
66335;Laerm;53138;51.496;6.410;2023-07-24T00:24:33;34.82;31.20;36.73;;
66335;Laerm;53138;51.496;6.410;2023-07-24T00:24:43;31.90;30.58;33.47;;
66335;Laerm;53138;51.496;6.410;2023-07-24T00:24:53;32.07;29.82;46.07;;
66335;Laerm;53138;51.496;6.410;2023-07-24T00:25:04;31.38;29.57;33.22;;
66335;Laerm;53138;51.496;6.410;2023-07-24T00:25:16;32.89;30.79;35.47;;
66335;Laerm;53138;51.496;6.410;2023-07-24T00:25:26;32.91;30.09;35.99;;
66335;Laerm;53138;51.496;6.410;2023-07-24T00:25:36;31.56;30.06;38.43;;
66335;Laerm;53138;51.496;6.410;2023-07-24T00:25:46;31.41;29.58;35.89;;
66335;Laerm;53138;51.496;6.410;2023-07-24T00:25:56;31.41;29.80;33.45;;
66335;Laerm;53138;51.496;6.410;2023-07-24T00:26:07;31.88;30.00;34.50;;
66335;Laerm;53138;51.496;6.410;2023-07-24T00:26:17;32.06;30.11;35.00;;
66335;Laerm;53138;51.496;6.410;2023-07-24T00:26:27;31.97;30.58;33.64;;
66335;Laerm;53138;51.496;6.410;2023-07-24T00:26:37;32.18;30.84;34.04;;
66335;Laerm;53138;51.496;6.410;2023-07-24T00:26:47;31.78;30.22;41.81;;
66335;Laerm;53138;51.496;6.410;2023-07-24T00:26:58;32.19;30.20;37.22;;
66335;Laerm;53138;51.496;6.410;2023-07-24T00:27:08;33.08;31.33;38.69;;
66335;Laerm;53138;51.496;6.410;2023-07-24T00:27:18;32.93;30.76;39.61;;
66335;Laerm;53138;51.496;6.410;2023-07-24T00:27:28;33.55;31.16;40.51;;
66335;Laerm;53138;51.496;6.410;2023-07-24T00:27:38;33.36;30.29;39.84;;
66335;Laerm;53138;51.496;6.410;2023-07-24T00:27:49;34.32;31.78;38.95;;
66335;Laerm;53138;51.496;6.410;2023-07-24T00:27:59;40.21;32.95;46.17;;
66335;Laerm;53138;51.496;6.410;2023-07-24T00:28:09;37.79;32.00;44.29;;
66335;Laerm;53138;51.496;6.410;2023-07-24T00:28:19;33.31;30.41;40.93;;
66335;Laerm;53138;51.496;6.410;2023-07-24T00:28:29;32.65;30.69;37.91;;
66335;Laerm;53138;51.496;6.410;2023-07-24T00:28:40;32.92;30.85;37.99;;
66335;Laerm;53138;51.496;6.410;2023-07-24T00:28:50;31.98;30.66;36.77;;
66335;Laerm;53138;51.496;6.410;2023-07-24T00:29:00;31.49;30.22;32.99;;
66335;Laerm;53138;51.496;6.410;2023-07-24T00:29:11;31.67;29.75;37.27;;
66335;Laerm;53138;51.496;6.410;2023-07-24T00:29:21;31.72;29.93;36.38;;
66335;Laerm;53138;51.496;6.410;2023-07-24T00:29:31;32.98;30.31;45.53;;
66335;Laerm;53138;51.496;6.410;2023-07-24T00:29:41;32.24;30.45;39.63;;
66335;Laerm;53138;51.496;6.410;2023-07-24T00:29:51;31.94;30.41;35.14;;
66335;Laerm;53138;51.496;6.410;2023-07-24T00:30:02;32.47;30.31;39.73;;
66335;Laerm;53138;51.496;6.410;2023-07-24T00:30:12;32.88;30.69;36.77;;
66335;Laerm;53138;51.496;6.410;2023-07-24T00:30:22;34.27;31.99;37.67;;
66335;Laerm;53138;51.496;6.410;2023-07-24T00:30:32;41.89;34.79;48.42;;
66335;Laerm;53138;51.496;6.410;2023-07-24T00:30:43;37.92;32.87;44.26;;
66335;Laerm;53138;51.496;6.410;2023-07-24T00:30:53;36.53;32.54;42.39;;
66335;Laerm;53138;51.496;6.410;2023-07-24T00:31:03;39.41;33.77;45.49;;
66335;Laerm;53138;51.496;6.410;2023-07-24T00:31:13;32.14;30.26;35.86;;
66335;Laerm;53138;51.496;6.410;2023-07-24T00:31:23;30.89;29.46;32.25;;
66335;Laerm;53138;51.496;6.410;2023-07-24T00:31:34;31.38;29.68;35.11;;
66335;Laerm;53138;51.496;6.410;2023-07-24T00:31:44;31.44;29.78;32.96;;
66335;Laerm;53138;51.496;6.410;2023-07-24T00:31:54;33.60;30.10;38.82;;
66335;Laerm;53138;51.496;6.410;2023-07-24T00:32:04;31.69;30.02;35.31;;
66335;Laerm;53138;51.496;6.410;2023-07-24T00:32:15;31.00;29.53;33.56;;
66335;Laerm;53138;51.496;6.410;2023-07-24T00:32:25;31.01;29.58;32.71;;
66335;Laerm;53138;51.496;6.410;2023-07-24T00:32:35;31.43;30.20;33.89;;
66335;Laerm;53138;51.496;6.410;2023-07-24T00:32:45;34.34;31.14;40.69;;
66335;Laerm;53138;51.496;6.410;2023-07-24T00:32:56;32.63;31.18;34.91;;
66335;Laerm;53138;51.496;6.410;2023-07-24T00:33:06;33.42;30.41;36.58;;
66335;Laerm;53138;51.496;6.410;2023-07-24T00:33:16;42.84;35.00;51.08;;
66335;Laerm;53138;51.496;6.410;2023-07-24T00:33:26;40.03;33.44;48.59;;
66335;Laerm;53138;51.496;6.410;2023-07-24T00:33:37;33.44;30.54;38.08;;
66335;Laerm;53138;51.496;6.410;2023-07-24T00:33:47;31.50;29.94;33.48;;
66335;Laerm;53138;51.496;6.410;2023-07-24T00:33:57;32.35;30.99;35.19;;
66335;Laerm;53138;51.496;6.410;2023-07-24T00:34:10;37.94;30.95;43.85;;
66335;Laerm;53138;51.496;6.410;2023-07-24T00:34:20;40.91;34.19;47.46;;
66335;Laerm;53138;51.496;6.410;2023-07-24T00:34:30;33.01;30.83;35.59;;
66335;Laerm;53138;51.496;6.410;2023-07-24T00:34:40;31.68;30.24;33.44;;
66335;Laerm;53138;51.496;6.410;2023-07-24T00:34:51;31.36;29.52;32.84;;
66335;Laerm;53138;51.496;6.410;2023-07-24T00:35:01;31.12;29.42;32.69;;
66335;Laerm;53138;51.496;6.410;2023-07-24T00:35:11;34.73;29.52;40.65;;
66335;Laerm;53138;51.496;6.410;2023-07-24T00:35:22;31.97;30.13;34.65;;
66335;Laerm;53138;51.496;6.410;2023-07-24T00:35:32;41.31;32.53;48.60;;
66335;Laerm;53138;51.496;6.410;2023-07-24T00:35:42;43.30;33.64;51.42;;
66335;Laerm;53138;51.496;6.410;2023-07-24T00:35:56;32.98;30.54;36.29;;
66335;Laerm;53138;51.496;6.410;2023-07-24T00:36:07;32.12;29.90;35.60;;
66335;Laerm;53138;51.496;6.410;2023-07-24T00:36:17;31.58;29.89;33.16;;
66335;Laerm;53138;51.496;6.410;2023-07-24T00:36:28;31.41;29.47;33.05;;
66335;Laerm;53138;51.496;6.410;2023-07-24T00:36:38;31.64;30.08;33.15;;
66335;Laerm;53138;51.496;6.410;2023-07-24T00:36:48;32.86;29.94;36.41;;
66335;Laerm;53138;51.496;6.410;2023-07-24T00:36:58;31.26;29.48;33.32;;
66335;Laerm;53138;51.496;6.410;2023-07-24T00:37:09;35.63;31.21;41.75;;
66335;Laerm;53138;51.496;6.410;2023-07-24T00:37:19;40.59;34.74;46.67;;
66335;Laerm;53138;51.496;6.410;2023-07-24T00:37:29;33.15;30.36;37.57;;
66335;Laerm;53138;51.496;6.410;2023-07-24T00:37:39;32.06;29.90;37.91;;
66335;Laerm;53138;51.496;6.410;2023-07-24T00:37:49;30.84;29.45;37.75;;
66335;Laerm;53138;51.496;6.410;2023-07-24T00:38:00;30.83;29.52;32.11;;
66335;Laerm;53138;51.496;6.410;2023-07-24T00:38:10;32.26;30.17;38.02;;
66335;Laerm;53138;51.496;6.410;2023-07-24T00:38:20;33.37;29.91;39.31;;
66335;Laerm;53138;51.496;6.410;2023-07-24T00:38:30;31.59;29.52;35.98;;
66335;Laerm;53138;51.496;6.410;2023-07-24T00:38:41;31.15;29.53;32.73;;
66335;Laerm;53138;51.496;6.410;2023-07-24T00:38:51;31.66;29.89;41.35;;
66335;Laerm;53138;51.496;6.410;2023-07-24T00:39:01;31.43;29.62;34.28;;
66335;Laerm;53138;51.496;6.410;2023-07-24T00:39:13;32.09;30.01;35.27;;
66335;Laerm;53138;51.496;6.410;2023-07-24T00:39:23;31.23;29.85;32.81;;
66335;Laerm;53138;51.496;6.410;2023-07-24T00:39:33;32.04;30.16;34.08;;
66335;Laerm;53138;51.496;6.410;2023-07-24T00:39:44;37.28;32.72;42.06;;
66335;Laerm;53138;51.496;6.410;2023-07-24T00:39:54;33.68;31.24;37.52;;
66335;Laerm;53138;51.496;6.410;2023-07-24T00:40:05;33.22;30.02;41.93;;
66335;Laerm;53138;51.496;6.410;2023-07-24T00:40:15;31.05;29.74;32.80;;
66335;Laerm;53138;51.496;6.410;2023-07-24T00:40:25;30.86;29.56;32.39;;
66335;Laerm;53138;51.496;6.410;2023-07-24T00:40:36;31.01;29.41;33.07;;
66335;Laerm;53138;51.496;6.410;2023-07-24T00:40:46;31.50;29.69;33.86;;
66335;Laerm;53138;51.496;6.410;2023-07-24T00:40:56;31.79;29.76;34.37;;
66335;Laerm;53138;51.496;6.410;2023-07-24T00:41:06;31.04;29.31;39.57;;
66335;Laerm;53138;51.496;6.410;2023-07-24T00:41:17;30.61;29.13;32.45;;
66335;Laerm;53138;51.496;6.410;2023-07-24T00:41:27;31.07;29.64;32.66;;
66335;Laerm;53138;51.496;6.410;2023-07-24T00:41:37;32.63;29.82;36.87;;
66335;Laerm;53138;51.496;6.410;2023-07-24T00:41:47;31.58;29.59;34.84;;
66335;Laerm;53138;51.496;6.410;2023-07-24T00:41:57;31.18;28.99;32.86;;
66335;Laerm;53138;51.496;6.410;2023-07-24T00:42:08;30.96;29.52;32.32;;
66335;Laerm;53138;51.496;6.410;2023-07-24T00:42:18;31.48;29.63;33.05;;
66335;Laerm;53138;51.496;6.410;2023-07-24T00:42:28;32.45;29.56;35.52;;
66335;Laerm;53138;51.496;6.410;2023-07-24T00:42:38;34.17;30.46;39.78;;
66335;Laerm;53138;51.496;6.410;2023-07-24T00:42:48;41.25;36.32;46.48;;
66335;Laerm;53138;51.496;6.410;2023-07-24T00:42:59;40.58;35.34;46.85;;
66335;Laerm;53138;51.496;6.410;2023-07-24T00:43:09;36.75;32.30;44.24;;
66335;Laerm;53138;51.496;6.410;2023-07-24T00:43:19;32.83;30.33;34.95;;
66335;Laerm;53138;51.496;6.410;2023-07-24T00:43:29;31.18;29.43;34.97;;
66335;Laerm;53138;51.496;6.410;2023-07-24T00:43:40;31.39;29.71;34.03;;
66335;Laerm;53138;51.496;6.410;2023-07-24T00:43:51;31.34;29.78;33.52;;
66335;Laerm;53138;51.496;6.410;2023-07-24T00:44:01;32.41;29.65;38.34;;
66335;Laerm;53138;51.496;6.410;2023-07-24T00:44:11;33.78;29.96;43.47;;
66335;Laerm;53138;51.496;6.410;2023-07-24T00:44:22;32.19;30.17;34.18;;
66335;Laerm;53138;51.496;6.410;2023-07-24T00:44:32;36.78;31.73;42.30;;
66335;Laerm;53138;51.496;6.410;2023-07-24T00:44:42;41.76;33.70;47.10;;
66335;Laerm;53138;51.496;6.410;2023-07-24T00:44:52;33.57;31.07;35.82;;
66335;Laerm;53138;51.496;6.410;2023-07-24T00:45:03;31.94;29.68;36.20;;
66335;Laerm;53138;51.496;6.410;2023-07-24T00:45:13;31.31;29.80;33.04;;
66335;Laerm;53138;51.496;6.410;2023-07-24T00:45:23;31.08;29.47;39.60;;
66335;Laerm;53138;51.496;6.410;2023-07-24T00:45:34;31.08;29.59;33.39;;
66335;Laerm;53138;51.496;6.410;2023-07-24T00:45:44;32.61;29.63;34.99;;
66335;Laerm;53138;51.496;6.410;2023-07-24T00:45:55;31.31;29.11;34.13;;
66335;Laerm;53138;51.496;6.410;2023-07-24T00:46:06;30.70;29.25;32.47;;
66335;Laerm;53138;51.496;6.410;2023-07-24T00:46:16;31.31;29.37;33.15;;
66335;Laerm;53138;51.496;6.410;2023-07-24T00:46:26;31.50;29.99;34.03;;
66335;Laerm;53138;51.496;6.410;2023-07-24T00:46:40;32.35;29.87;35.45;;
66335;Laerm;53138;51.496;6.410;2023-07-24T00:46:50;31.56;29.98;33.39;;
66335;Laerm;53138;51.496;6.410;2023-07-24T00:47:00;31.79;30.00;36.37;;
66335;Laerm;53138;51.496;6.410;2023-07-24T00:47:10;31.74;30.15;33.42;;
66335;Laerm;53138;51.496;6.410;2023-07-24T00:47:21;32.93;29.67;36.55;;
66335;Laerm;53138;51.496;6.410;2023-07-24T00:47:32;32.14;30.47;35.74;;
66335;Laerm;53138;51.496;6.410;2023-07-24T00:47:42;31.80;30.14;33.37;;
66335;Laerm;53138;51.496;6.410;2023-07-24T00:47:53;32.01;30.45;33.97;;
66335;Laerm;53138;51.496;6.410;2023-07-24T00:48:03;31.46;29.94;33.28;;
66335;Laerm;53138;51.496;6.410;2023-07-24T00:48:14;32.36;30.22;34.55;;
66335;Laerm;53138;51.496;6.410;2023-07-24T00:48:24;31.74;30.18;36.17;;
66335;Laerm;53138;51.496;6.410;2023-07-24T00:48:34;31.98;30.21;33.95;;
66335;Laerm;53138;51.496;6.410;2023-07-24T00:48:45;32.01;30.53;33.26;;
66335;Laerm;53138;51.496;6.410;2023-07-24T00:48:55;31.79;30.28;33.64;;
66335;Laerm;53138;51.496;6.410;2023-07-24T00:49:05;33.42;30.81;39.69;;
66335;Laerm;53138;51.496;6.410;2023-07-24T00:49:15;32.27;30.48;34.57;;
66335;Laerm;53138;51.496;6.410;2023-07-24T00:49:26;31.78;30.08;33.64;;
66335;Laerm;53138;51.496;6.410;2023-07-24T00:49:36;32.42;30.83;34.36;;
66335;Laerm;53138;51.496;6.410;2023-07-24T00:49:47;39.11;32.54;45.31;;
66335;Laerm;53138;51.496;6.410;2023-07-24T00:49:58;37.99;34.01;43.41;;
66335;Laerm;53138;51.496;6.410;2023-07-24T00:50:08;33.28;30.88;36.07;;
66335;Laerm;53138;51.496;6.410;2023-07-24T00:50:19;32.09;30.72;34.38;;
66335;Laerm;53138;51.496;6.410;2023-07-24T00:50:29;31.78;29.72;33.71;;
66335;Laerm;53138;51.496;6.410;2023-07-24T00:50:40;32.67;30.24;35.57;;
66335;Laerm;53138;51.496;6.410;2023-07-24T00:50:51;31.94;30.32;33.68;;
66335;Laerm;53138;51.496;6.410;2023-07-24T00:51:02;32.00;30.38;33.81;;
66335;Laerm;53138;51.496;6.410;2023-07-24T00:51:12;31.71;30.31;33.60;;
66335;Laerm;53138;51.496;6.410;2023-07-24T00:51:22;31.91;29.95;34.02;;
66335;Laerm;53138;51.496;6.410;2023-07-24T00:51:33;34.34;30.38;40.50;;
66335;Laerm;53138;51.496;6.410;2023-07-24T00:51:44;32.14;30.01;42.17;;
66335;Laerm;53138;51.496;6.410;2023-07-24T00:51:55;32.04;30.23;33.71;;
66335;Laerm;53138;51.496;6.410;2023-07-24T00:52:05;32.04;30.25;34.00;;
66335;Laerm;53138;51.496;6.410;2023-07-24T00:52:16;33.28;30.56;37.53;;
66335;Laerm;53138;51.496;6.410;2023-07-24T00:52:26;33.22;30.94;35.73;;
66335;Laerm;53138;51.496;6.410;2023-07-24T00:52:37;32.71;30.34;39.69;;
66335;Laerm;53138;51.496;6.410;2023-07-24T00:52:47;31.97;30.36;33.67;;
66335;Laerm;53138;51.496;6.410;2023-07-24T00:52:57;31.96;29.90;33.92;;
66335;Laerm;53138;51.496;6.410;2023-07-24T00:53:08;34.18;30.59;46.27;;
66335;Laerm;53138;51.496;6.410;2023-07-24T00:53:18;32.36;30.50;33.94;;
66335;Laerm;53138;51.496;6.410;2023-07-24T00:53:29;33.46;31.24;36.33;;
66335;Laerm;53138;51.496;6.410;2023-07-24T00:53:40;41.10;33.60;48.54;;
66335;Laerm;53138;51.496;6.410;2023-07-24T00:53:50;42.95;34.97;50.12;;
66335;Laerm;53138;51.496;6.410;2023-07-24T00:54:01;34.73;31.51;38.32;;
66335;Laerm;53138;51.496;6.410;2023-07-24T00:54:12;32.65;30.64;38.49;;
66335;Laerm;53138;51.496;6.410;2023-07-24T00:54:26;32.41;30.27;36.22;;
66335;Laerm;53138;51.496;6.410;2023-07-24T00:54:38;32.53;30.25;36.93;;
66335;Laerm;53138;51.496;6.410;2023-07-24T00:54:49;35.19;30.89;38.70;;
66335;Laerm;53138;51.496;6.410;2023-07-24T00:54:59;32.35;30.46;34.75;;
66335;Laerm;53138;51.496;6.410;2023-07-24T00:55:10;32.51;30.62;34.79;;
66335;Laerm;53138;51.496;6.410;2023-07-24T00:55:21;34.03;31.32;39.68;;
66335;Laerm;53138;51.496;6.410;2023-07-24T00:55:31;39.48;34.44;45.46;;
66335;Laerm;53138;51.496;6.410;2023-07-24T00:55:42;43.65;38.01;48.91;;
66335;Laerm;53138;51.496;6.410;2023-07-24T00:55:52;36.88;32.26;42.10;;
66335;Laerm;53138;51.496;6.410;2023-07-24T00:56:03;32.62;30.59;35.16;;
66335;Laerm;53138;51.496;6.410;2023-07-24T00:56:14;32.27;30.27;36.83;;
66335;Laerm;53138;51.496;6.410;2023-07-24T00:56:24;33.86;30.95;37.98;;
66335;Laerm;53138;51.496;6.410;2023-07-24T00:56:34;39.54;34.81;43.66;;
66335;Laerm;53138;51.496;6.410;2023-07-24T00:56:45;34.33;31.33;37.17;;
66335;Laerm;53138;51.496;6.410;2023-07-24T00:56:55;32.70;31.44;34.12;;
66335;Laerm;53138;51.496;6.410;2023-07-24T00:57:05;32.43;30.19;36.02;;
66335;Laerm;53138;51.496;6.410;2023-07-24T00:57:16;33.77;30.71;37.43;;
66335;Laerm;53138;51.496;6.410;2023-07-24T00:57:26;32.19;30.51;33.77;;
66335;Laerm;53138;51.496;6.410;2023-07-24T00:57:36;32.97;30.36;35.39;;
66335;Laerm;53138;51.496;6.410;2023-07-24T00:57:46;32.01;30.58;35.42;;
66335;Laerm;53138;51.496;6.410;2023-07-24T00:57:57;32.24;30.35;35.16;;
66335;Laerm;53138;51.496;6.410;2023-07-24T00:58:09;34.54;30.57;39.89;;